Trenton Mercer Airport
KTTN : now visible

Airfield :











YOU CAN JOIN US ON...

 
LOGIN :

Register | Disclaimer

   EN    FR    IT 

 









Legend :    VFR   Marginal VFR   IFR   Intensive IFR   Very Intensive IFR
Visi :
Ceiling :
>= 8 km
>= 3000ft
5 to 8 km
1000 to 3000 ft
1500m to 5 km
500 to 1000 ft
800 to 1500m
200 to 500 ft
< 800m
< 200 ft
Symbols :   Thunderstorms  Fog  Heavy snow  Heavy precipitations  Wind > 20 kt






- Airport Elevation : 213 ft
- IATA code : TTN


KTTN - Trenton Mercer

CURRENT METAR :
  • 011353Z 04013KT 10SM FEW034 06/M01 A2983 RMK AO2 SLP096 T00611011

EXPIRED METARs :
  • 011253Z 02010KT 10SM CLR 06/M01 A2983 RMK AO2 SLP095 T00561006
  • 011153Z 03008KT 10SM CLR 04/M01 A2981 RMK AO2 SLP091 70001 T00391006 10044 20033 50008

TAF KTTN
Valid from the 01 at 12:00 until the 02 at 12:00 UTC


011128Z 0112/0212 02011G18KT P6SM BKN040
FM011800 35010KT P6SM BKN070
FM020000 34009KT P6SM FEW150



MET'MAP, your aeronautical weather chart ! - Copyright ORBIFLY December 2007 - Disclaimer

ORBIFLY MET'MAP TEAM :

Programming & Development : Alexandra Zaïnal
Concept & original design : Baudouin d'Aumeries
Assistance for programming : Marc-Olivier Méhu
Technical & hardware support : Manuel Goepfert

Contact : metmap@orbifly.com




SOURCES & CREDITS :

   NOAA       Earth
Advisory